Belsano, PA (15922)

12:44 PM EST on December 09, 2019 (GMT -0500)
Strongstown, PA | | Change Station

Elev 1916 ft 40.55 °N, 78.92 °W | Updated 16 seconds ago

Rain
Rain
43 °F
Feels Like 43 °F
N
2.9
Wind Variable Wind from SE
Gusts 3.4 mph

Today
High -- | Low -- °F
--% Chance of Precip.
Yesterday
High -- | Low -- °F
Precip. -- in
Pressure 29.80 in
Visibility 3.0 miles
Clouds Scattered Clouds 1400 ft
Mostly Cloudy 2300 ft
Overcast 4200 ft
Windchill 43 °F
Dew Point 43 °F
Humidity 99%
Rainfall 0.27 in
Snow Depth Not available.
7:26 AM 4:48 PM
Waxing Gibbous, 93% visible
SPECI KJST 091713Z AUTO 20009KT 3SM RA BR SCT014 BKN023 OVC042 05/03 A2980 RMK AO2 P0003 T00500033
Pressure 29.80 in
Visibility 3.0 miles
Clouds Scattered Clouds 1400 ft
Mostly Cloudy 2300 ft
Overcast 4200 ft
Windchill 43 °F
Dew Point 43 °F
Humidity 99%
Rainfall 0.27 in
Snow Depth Not available.
7:26 AM 4:48 PM
Waxing Gibbous, 93% visible
SPECI KJST 091713Z AUTO 20009KT 3SM RA BR SCT014 BKN023 OVC042 05/03 A2980 RMK AO2 P0003 T00500033

Get Severe Weather Alerts

Thanks for signing up!

Be on the lookout for a verification email in your inbox.

You'll start receiving the daily forecast at 6 AM.

×

10-Day Weather Forecast

Almanac

Astronomy

Dec. 09, 2019 Rise Set
Actual Time
Civil Twilight
Nautical Twilight
Astronomical Twilight
Moon
Length of Visible Light
Length of Day
Tomorrow will be .
, % of the Moon is Illuminated

Today's Extremes

State Highs State Lows

Community

WunderPhotos

Category 6

Welcome to Category 6. This is the collective home for Weather Underground's featured writeups by Dr. Jeff Masters (right), Bob Henson (left), Chris Burt, and other regular contributors.

Nearby

Air Quality

  Air Quality AQ Index Pollutant
Not available.

Snow Depth

Station Depth Elevation

Earthquake Activity

City Distance Mag. Time & Date
Minimum magnitude displayed is 2.5.

Coastal Water Temperatures

Place Temperature

Stations

Nearby Weather Stations

Station Location Temp. Windchill Dew Point Humidity Wind Precip. Elev Updated Type
                   

Watches & Warnings

There are currently no watches in effect.